الصفحة الرئيسية
METAR-TAF:

METAR-TAF

مطار :

مطار توات - شيخ سيدي محمد بلكبير

أدرار, الجزائر

دائرة عرض: 27-53N, خط طول: 000-17W, ارتفاع: 263 متر

مراقبة الطقس الحالي

تاريخ ووقت الإصدار 53 دقيقة قبل الساعة 09:00UTC
ريح 8 عقدة من الشرق
درجة الحرارة 42°درجة مئوية
ضغط 1010 hPa
الرؤية 10 كم أو أكثر
الغيوم لا تقل 1500 م ولا وجود لمزنة ركامية السحاب الأسود

METAR: DAUA 210900Z 09008KT CAVOK 42/// Q1010

زمن: 10:53 (09:53 UTC)

توقعات

تاريخ ووقت الإصدار 4ساعات و 53 دقيقة قبل الساعة 05:00UTC
التوقعات صالحة من21 الساعة 06 UTC إلى 22 الساعة 06 UTC
ريح 8 عقدة من الشرق
الرؤية 10 كم أو أكثر
الغيوم لا تقل 1500 م ولا وجود لمزنة ركامية السحاب الأسود
نظرية الاحتمالات 30% :
مؤقت
من 21 الساعة 14 UTC إلى 21 الساعة 18 UTC
ريح 20 عقدة من الجنوب الشرقي
الرؤية: 5000 متر
هبوب عاصفة رملية منخفضة

TAF: DAUA 210500Z 2106/2206 10008KT CAVOK PROB30 TEMPO 2114/2118 14020KT 5000 DRSA

أرصاد الطقس والتوقعات من أكثر من 4000 مطار (تقارير الطقس للمطار METAR والتنبؤ بالطقس بالمطارTAF).

المحطات المتاحة هي النقط الصفراء والحمراء على الخريطة.

حرك المؤشر فوق النقطة لمعرفة اسم المحطة.

ثم انقر لمعرفة أرصاد وتوقعات الطقس.

لتغيير الخارطة: اضغط على الأزرار الخضراء مع رمز الصليب الأسود للتكبير. على الزر الأخضر مع شرطة للتصغير، أو على الأسهم الخضراء للخرائط المجاورة.


METAR-TAF: